sensor_id;sensor_type;location;lat;lon;timestamp;P1;durP1;ratioP1;P2;durP2;ratioP2
55186;SDS011;55457;52.002;5.464;2022-10-31T00:00:19;7.93;;;4.13;;
55186;SDS011;55457;52.002;5.464;2022-10-31T00:02:45;7.30;;;3.95;;
55186;SDS011;55457;52.002;5.464;2022-10-31T00:05:10;7.00;;;4.30;;
55186;SDS011;55457;52.002;5.464;2022-10-31T00:07:35;8.45;;;4.28;;
55186;SDS011;55457;52.002;5.464;2022-10-31T00:10:01;8.85;;;4.28;;
55186;SDS011;55457;52.002;5.464;2022-10-31T00:12:26;8.48;;;3.63;;
55186;SDS011;55457;52.002;5.464;2022-10-31T00:14:52;9.93;;;3.70;;
55186;SDS011;55457;52.002;5.464;2022-10-31T00:17:17;6.22;;;3.78;;
55186;SDS011;55457;52.002;5.464;2022-10-31T00:19:43;11.60;;;4.85;;
55186;SDS011;55457;52.002;5.464;2022-10-31T00:22:08;12.75;;;4.70;;
55186;SDS011;55457;52.002;5.464;2022-10-31T00:24:33;10.93;;;3.50;;
55186;SDS011;55457;52.002;5.464;2022-10-31T00:26:58;9.20;;;3.85;;
55186;SDS011;55457;52.002;5.464;2022-10-31T00:29:24;10.40;;;4.70;;
55186;SDS011;55457;52.002;5.464;2022-10-31T00:31:49;8.57;;;4.05;;
55186;SDS011;55457;52.002;5.464;2022-10-31T00:34:14;9.77;;;3.92;;
55186;SDS011;55457;52.002;5.464;2022-10-31T00:36:40;7.40;;;3.95;;
55186;SDS011;55457;52.002;5.464;2022-10-31T00:39:05;6.60;;;3.88;;
55186;SDS011;55457;52.002;5.464;2022-10-31T00:41:30;12.45;;;3.95;;
55186;SDS011;55457;52.002;5.464;2022-10-31T00:43:55;7.85;;;4.45;;
55186;SDS011;55457;52.002;5.464;2022-10-31T00:46:21;5.78;;;4.05;;
55186;SDS011;55457;52.002;5.464;2022-10-31T00:48:46;5.43;;;3.40;;
55186;SDS011;55457;52.002;5.464;2022-10-31T00:51:11;4.63;;;3.30;;
55186;SDS011;55457;52.002;5.464;2022-10-31T00:53:37;9.27;;;3.33;;
55186;SDS011;55457;52.002;5.464;2022-10-31T00:56:02;6.07;;;3.50;;
55186;SDS011;55457;52.002;5.464;2022-10-31T00:58:28;9.57;;;4.07;;
55186;SDS011;55457;52.002;5.464;2022-10-31T01:00:53;7.40;;;3.80;;
55186;SDS011;55457;52.002;5.464;2022-10-31T01:03:25;10.70;;;3.97;;
55186;SDS011;55457;52.002;5.464;2022-10-31T01:06:11;9.68;;;3.88;;
55186;SDS011;55457;52.002;5.464;2022-10-31T01:08:38;7.50;;;3.38;;
55186;SDS011;55457;52.002;5.464;2022-10-31T01:11:11;6.28;;;3.00;;
55186;SDS011;55457;52.002;5.464;2022-10-31T01:13:38;8.05;;;4.10;;
55186;SDS011;55457;52.002;5.464;2022-10-31T01:16:04;9.60;;;3.67;;
55186;SDS011;55457;52.002;5.464;2022-10-31T01:18:31;13.15;;;5.43;;
55186;SDS011;55457;52.002;5.464;2022-10-31T01:20:57;10.27;;;4.38;;
55186;SDS011;55457;52.002;5.464;2022-10-31T01:23:24;6.88;;;3.75;;
55186;SDS011;55457;52.002;5.464;2022-10-31T01:25:49;6.75;;;3.65;;
55186;SDS011;55457;52.002;5.464;2022-10-31T01:28:23;6.20;;;3.80;;
55186;SDS011;55457;52.002;5.464;2022-10-31T01:30:49;6.47;;;3.75;;
55186;SDS011;55457;52.002;5.464;2022-10-31T01:33:14;5.95;;;3.58;;
55186;SDS011;55457;52.002;5.464;2022-10-31T01:35:39;9.30;;;2.92;;
55186;SDS011;55457;52.002;5.464;2022-10-31T01:38:05;5.93;;;3.42;;
55186;SDS011;55457;52.002;5.464;2022-10-31T01:40:30;6.05;;;3.33;;
55186;SDS011;55457;52.002;5.464;2022-10-31T01:42:56;5.15;;;3.17;;
55186;SDS011;55457;52.002;5.464;2022-10-31T01:45:21;6.90;;;3.78;;
55186;SDS011;55457;52.002;5.464;2022-10-31T01:47:46;6.43;;;3.03;;
55186;SDS011;55457;52.002;5.464;2022-10-31T01:50:28;6.25;;;3.22;;
55186;SDS011;55457;52.002;5.464;2022-10-31T01:52:58;6.78;;;2.92;;
55186;SDS011;55457;52.002;5.464;2022-10-31T01:55:30;6.63;;;3.60;;
55186;SDS011;55457;52.002;5.464;2022-10-31T01:57:59;6.15;;;3.67;;
55186;SDS011;55457;52.002;5.464;2022-10-31T02:00:30;7.93;;;3.47;;
55186;SDS011;55457;52.002;5.464;2022-10-31T02:02:55;5.90;;;3.25;;
55186;SDS011;55457;52.002;5.464;2022-10-31T02:05:23;6.40;;;3.60;;
55186;SDS011;55457;52.002;5.464;2022-10-31T02:10:44;6.67;;;4.00;;
55186;SDS011;55457;52.002;5.464;2022-10-31T02:13:10;10.80;;;3.97;;
55186;SDS011;55457;52.002;5.464;2022-10-31T02:15:37;11.15;;;3.22;;
55186;SDS011;55457;52.002;5.464;2022-10-31T02:18:05;8.18;;;3.72;;
55186;SDS011;55457;52.002;5.464;2022-10-31T02:20:33;6.18;;;3.90;;
55186;SDS011;55457;52.002;5.464;2022-10-31T02:29:04;8.02;;;3.28;;
55186;SDS011;55457;52.002;5.464;2022-10-31T02:31:36;6.63;;;3.13;;
55186;SDS011;55457;52.002;5.464;2022-10-31T02:37:02;5.07;;;3.08;;
55186;SDS011;55457;52.002;5.464;2022-10-31T02:42:21;5.40;;;2.78;;
55186;SDS011;55457;52.002;5.464;2022-10-31T02:45:04;5.80;;;3.45;;
55186;SDS011;55457;52.002;5.464;2022-10-31T02:47:38;4.82;;;3.42;;
55186;SDS011;55457;52.002;5.464;2022-10-31T02:52:38;3.97;;;2.78;;
55186;SDS011;55457;52.002;5.464;2022-10-31T02:57:35;9.98;;;3.13;;
55186;SDS011;55457;52.002;5.464;2022-10-31T03:00:05;7.45;;;3.10;;
55186;SDS011;55457;52.002;5.464;2022-10-31T03:02:36;5.57;;;3.05;;
55186;SDS011;55457;52.002;5.464;2022-10-31T03:08:25;6.10;;;3.13;;
55186;SDS011;55457;52.002;5.464;2022-10-31T03:13:29;9.60;;;3.17;;
55186;SDS011;55457;52.002;5.464;2022-10-31T03:16:11;9.45;;;3.58;;
55186;SDS011;55457;52.002;5.464;2022-10-31T03:18:43;5.65;;;3.35;;
55186;SDS011;55457;52.002;5.464;2022-10-31T03:21:23;5.30;;;2.72;;
55186;SDS011;55457;52.002;5.464;2022-10-31T03:23:55;7.15;;;3.42;;
55186;SDS011;55457;52.002;5.464;2022-10-31T03:26:22;9.35;;;3.35;;
55186;SDS011;55457;52.002;5.464;2022-10-31T03:28:51;3.65;;;2.45;;
55186;SDS011;55457;52.002;5.464;2022-10-31T03:31:19;8.82;;;3.63;;
55186;SDS011;55457;52.002;5.464;2022-10-31T03:33:50;10.93;;;3.35;;
55186;SDS011;55457;52.002;5.464;2022-10-31T03:36:17;4.35;;;2.63;;
55186;SDS011;55457;52.002;5.464;2022-10-31T03:38:43;5.65;;;3.92;;
55186;SDS011;55457;52.002;5.464;2022-10-31T03:41:12;6.60;;;2.85;;
55186;SDS011;55457;52.002;5.464;2022-10-31T03:43:42;4.50;;;2.95;;
55186;SDS011;55457;52.002;5.464;2022-10-31T03:46:13;4.03;;;3.03;;
55186;SDS011;55457;52.002;5.464;2022-10-31T03:48:38;5.65;;;2.67;;
55186;SDS011;55457;52.002;5.464;2022-10-31T03:53:39;9.40;;;3.42;;
55186;SDS011;55457;52.002;5.464;2022-10-31T03:56:12;9.05;;;3.30;;
55186;SDS011;55457;52.002;5.464;2022-10-31T03:59:01;10.85;;;3.22;;
55186;SDS011;55457;52.002;5.464;2022-10-31T04:01:42;6.85;;;2.85;;
55186;SDS011;55457;52.002;5.464;2022-10-31T04:04:12;4.22;;;2.85;;
55186;SDS011;55457;52.002;5.464;2022-10-31T04:06:39;4.65;;;3.08;;
55186;SDS011;55457;52.002;5.464;2022-10-31T04:09:08;8.27;;;3.15;;
55186;SDS011;55457;52.002;5.464;2022-10-31T04:11:36;5.38;;;2.83;;
55186;SDS011;55457;52.002;5.464;2022-10-31T04:14:05;8.73;;;3.17;;
55186;SDS011;55457;52.002;5.464;2022-10-31T04:16:31;5.72;;;2.78;;
55186;SDS011;55457;52.002;5.464;2022-10-31T04:18:57;6.65;;;3.25;;
55186;SDS011;55457;52.002;5.464;2022-10-31T04:21:29;5.30;;;3.30;;
55186;SDS011;55457;52.002;5.464;2022-10-31T04:26:20;3.45;;;2.47;;
55186;SDS011;55457;52.002;5.464;2022-10-31T04:28:45;7.30;;;2.70;;
55186;SDS011;55457;52.002;5.464;2022-10-31T04:31:11;10.60;;;3.05;;
55186;SDS011;55457;52.002;5.464;2022-10-31T04:33:37;4.95;;;2.50;;
55186;SDS011;55457;52.002;5.464;2022-10-31T04:36:03;6.00;;;3.10;;
55186;SDS011;55457;52.002;5.464;2022-10-31T04:38:29;8.98;;;3.15;;
55186;SDS011;55457;52.002;5.464;2022-10-31T04:40:55;4.82;;;2.83;;
55186;SDS011;55457;52.002;5.464;2022-10-31T04:43:20;7.32;;;2.70;;
55186;SDS011;55457;52.002;5.464;2022-10-31T04:45:45;6.20;;;2.70;;
55186;SDS011;55457;52.002;5.464;2022-10-31T04:48:11;8.00;;;3.25;;
55186;SDS011;55457;52.002;5.464;2022-10-31T04:50:36;6.88;;;2.83;;
55186;SDS011;55457;52.002;5.464;2022-10-31T04:53:01;4.78;;;2.70;;
55186;SDS011;55457;52.002;5.464;2022-10-31T04:55:27;8.20;;;3.42;;
55186;SDS011;55457;52.002;5.464;2022-10-31T04:57:52;8.10;;;3.13;;
55186;SDS011;55457;52.002;5.464;2022-10-31T05:00:18;7.28;;;3.60;;
55186;SDS011;55457;52.002;5.464;2022-10-31T05:02:53;6.95;;;2.70;;
55186;SDS011;55457;52.002;5.464;2022-10-31T05:05:21;7.40;;;2.95;;
55186;SDS011;55457;52.002;5.464;2022-10-31T05:07:48;6.45;;;3.10;;
55186;SDS011;55457;52.002;5.464;2022-10-31T05:10:16;5.75;;;3.30;;
55186;SDS011;55457;52.002;5.464;2022-10-31T05:12:50;7.28;;;2.95;;
55186;SDS011;55457;52.002;5.464;2022-10-31T05:15:20;12.70;;;3.20;;
55186;SDS011;55457;52.002;5.464;2022-10-31T05:17:47;7.85;;;3.08;;
55186;SDS011;55457;52.002;5.464;2022-10-31T05:20:14;5.72;;;2.50;;
55186;SDS011;55457;52.002;5.464;2022-10-31T05:22:44;8.02;;;2.65;;
55186;SDS011;55457;52.002;5.464;2022-10-31T05:25:11;5.47;;;2.95;;
55186;SDS011;55457;52.002;5.464;2022-10-31T05:27:40;10.70;;;3.50;;
55186;SDS011;55457;52.002;5.464;2022-10-31T05:30:06;3.97;;;2.75;;
55186;SDS011;55457;52.002;5.464;2022-10-31T05:32:38;4.80;;;2.70;;
55186;SDS011;55457;52.002;5.464;2022-10-31T05:35:05;5.78;;;2.85;;
55186;SDS011;55457;52.002;5.464;2022-10-31T05:37:33;4.47;;;2.70;;
55186;SDS011;55457;52.002;5.464;2022-10-31T05:39:59;3.53;;;2.33;;
55186;SDS011;55457;52.002;5.464;2022-10-31T05:42:24;4.90;;;2.70;;
55186;SDS011;55457;52.002;5.464;2022-10-31T05:44:50;7.35;;;2.53;;
55186;SDS011;55457;52.002;5.464;2022-10-31T05:47:15;4.85;;;2.90;;
55186;SDS011;55457;52.002;5.464;2022-10-31T05:49:40;4.47;;;2.83;;
55186;SDS011;55457;52.002;5.464;2022-10-31T05:52:06;3.10;;;2.15;;
55186;SDS011;55457;52.002;5.464;2022-10-31T05:54:31;4.18;;;2.63;;
55186;SDS011;55457;52.002;5.464;2022-10-31T05:56:56;8.65;;;3.33;;
55186;SDS011;55457;52.002;5.464;2022-10-31T05:59:22;8.45;;;3.20;;
55186;SDS011;55457;52.002;5.464;2022-10-31T06:01:47;5.60;;;3.22;;
55186;SDS011;55457;52.002;5.464;2022-10-31T06:04:12;9.00;;;3.13;;
55186;SDS011;55457;52.002;5.464;2022-10-31T06:06:38;8.38;;;3.38;;
55186;SDS011;55457;52.002;5.464;2022-10-31T06:09:03;5.35;;;3.85;;
55186;SDS011;55457;52.002;5.464;2022-10-31T06:11:28;3.80;;;2.35;;
55186;SDS011;55457;52.002;5.464;2022-10-31T06:13:53;5.85;;;3.50;;
55186;SDS011;55457;52.002;5.464;2022-10-31T06:16:19;4.90;;;2.75;;
55186;SDS011;55457;52.002;5.464;2022-10-31T06:18:45;5.57;;;3.15;;
55186;SDS011;55457;52.002;5.464;2022-10-31T06:21:11;6.07;;;3.22;;
55186;SDS011;55457;52.002;5.464;2022-10-31T06:23:36;6.03;;;2.60;;
55186;SDS011;55457;52.002;5.464;2022-10-31T06:26:01;5.35;;;2.83;;
55186;SDS011;55457;52.002;5.464;2022-10-31T06:28:27;5.32;;;3.00;;
55186;SDS011;55457;52.002;5.464;2022-10-31T06:30:52;4.88;;;2.80;;
55186;SDS011;55457;52.002;5.464;2022-10-31T06:33:17;4.78;;;2.85;;
55186;SDS011;55457;52.002;5.464;2022-10-31T06:35:46;7.88;;;4.00;;
55186;SDS011;55457;52.002;5.464;2022-10-31T06:38:12;9.75;;;4.20;;
55186;SDS011;55457;52.002;5.464;2022-10-31T06:40:37;9.60;;;3.33;;
55186;SDS011;55457;52.002;5.464;2022-10-31T06:43:02;7.78;;;3.00;;
55186;SDS011;55457;52.002;5.464;2022-10-31T06:45:28;5.40;;;3.30;;
55186;SDS011;55457;52.002;5.464;2022-10-31T06:47:53;5.18;;;2.83;;
55186;SDS011;55457;52.002;5.464;2022-10-31T06:50:20;10.73;;;3.30;;
55186;SDS011;55457;52.002;5.464;2022-10-31T06:52:56;9.20;;;3.28;;
55186;SDS011;55457;52.002;5.464;2022-10-31T06:55:22;6.18;;;2.90;;
55186;SDS011;55457;52.002;5.464;2022-10-31T07:00:18;11.10;;;3.10;;
55186;SDS011;55457;52.002;5.464;2022-10-31T07:02:52;7.90;;;3.53;;
55186;SDS011;55457;52.002;5.464;2022-10-31T07:05:18;10.05;;;4.35;;
55186;SDS011;55457;52.002;5.464;2022-10-31T07:07:43;5.93;;;3.40;;
55186;SDS011;55457;52.002;5.464;2022-10-31T07:10:08;8.88;;;3.67;;
55186;SDS011;55457;52.002;5.464;2022-10-31T07:12:34;8.05;;;3.63;;
55186;SDS011;55457;52.002;5.464;2022-10-31T07:14:59;8.10;;;3.50;;
55186;SDS011;55457;52.002;5.464;2022-10-31T07:17:24;4.22;;;3.42;;
55186;SDS011;55457;52.002;5.464;2022-10-31T07:19:50;7.07;;;2.88;;
55186;SDS011;55457;52.002;5.464;2022-10-31T07:22:15;7.70;;;3.40;;
55186;SDS011;55457;52.002;5.464;2022-10-31T07:24:40;6.82;;;3.92;;
55186;SDS011;55457;52.002;5.464;2022-10-31T07:27:06;6.30;;;3.15;;
55186;SDS011;55457;52.002;5.464;2022-10-31T07:29:31;9.05;;;3.78;;
55186;SDS011;55457;52.002;5.464;2022-10-31T07:31:56;8.15;;;3.50;;
55186;SDS011;55457;52.002;5.464;2022-10-31T07:34:21;13.75;;;4.00;;
55186;SDS011;55457;52.002;5.464;2022-10-31T07:36:47;5.00;;;3.45;;
55186;SDS011;55457;52.002;5.464;2022-10-31T07:39:12;9.45;;;4.13;;
55186;SDS011;55457;52.002;5.464;2022-10-31T07:41:37;10.65;;;3.80;;
55186;SDS011;55457;52.002;5.464;2022-10-31T07:44:03;10.90;;;4.53;;
55186;SDS011;55457;52.002;5.464;2022-10-31T07:46:28;6.82;;;3.67;;
55186;SDS011;55457;52.002;5.464;2022-10-31T07:48:54;6.13;;;3.45;;
55186;SDS011;55457;52.002;5.464;2022-10-31T07:51:19;11.15;;;3.50;;
55186;SDS011;55457;52.002;5.464;2022-10-31T07:53:44;12.02;;;4.18;;
55186;SDS011;55457;52.002;5.464;2022-10-31T07:56:10;10.73;;;3.53;;
55186;SDS011;55457;52.002;5.464;2022-10-31T07:58:35;8.75;;;3.45;;
55186;SDS011;55457;52.002;5.464;2022-10-31T08:01:00;7.00;;;3.67;;
55186;SDS011;55457;52.002;5.464;2022-10-31T08:03:25;12.35;;;4.25;;
55186;SDS011;55457;52.002;5.464;2022-10-31T08:05:51;8.02;;;3.72;;
55186;SDS011;55457;52.002;5.464;2022-10-31T08:08:16;7.25;;;3.30;;
55186;SDS011;55457;52.002;5.464;2022-10-31T08:10:41;7.20;;;3.78;;
55186;SDS011;55457;52.002;5.464;2022-10-31T08:13:08;8.27;;;3.60;;
55186;SDS011;55457;52.002;5.464;2022-10-31T08:15:37;10.07;;;3.47;;
55186;SDS011;55457;52.002;5.464;2022-10-31T08:18:06;6.68;;;3.38;;
55186;SDS011;55457;52.002;5.464;2022-10-31T08:20:35;4.38;;;3.28;;
55186;SDS011;55457;52.002;5.464;2022-10-31T08:23:01;7.07;;;3.58;;
55186;SDS011;55457;52.002;5.464;2022-10-31T08:25:29;6.30;;;3.63;;
55186;SDS011;55457;52.002;5.464;2022-10-31T08:27:55;7.18;;;4.32;;
55186;SDS011;55457;52.002;5.464;2022-10-31T08:30:22;5.72;;;3.55;;
55186;SDS011;55457;52.002;5.464;2022-10-31T08:33:13;6.35;;;3.70;;
55186;SDS011;55457;52.002;5.464;2022-10-31T08:35:40;6.10;;;3.97;;
55186;SDS011;55457;52.002;5.464;2022-10-31T08:38:06;8.10;;;3.63;;
55186;SDS011;55457;52.002;5.464;2022-10-31T08:40:33;11.23;;;3.38;;
55186;SDS011;55457;52.002;5.464;2022-10-31T08:43:01;9.73;;;3.83;;
55186;SDS011;55457;52.002;5.464;2022-10-31T08:45:36;5.07;;;3.42;;
55186;SDS011;55457;52.002;5.464;2022-10-31T08:48:02;7.22;;;3.72;;
55186;SDS011;55457;52.002;5.464;2022-10-31T08:50:30;6.18;;;3.47;;
55186;SDS011;55457;52.002;5.464;2022-10-31T08:53:01;8.13;;;3.80;;
55186;SDS011;55457;52.002;5.464;2022-10-31T08:55:27;7.47;;;3.85;;
55186;SDS011;55457;52.002;5.464;2022-10-31T08:57:58;5.90;;;3.50;;
55186;SDS011;55457;52.002;5.464;2022-10-31T09:00:23;8.00;;;3.77;;
55186;SDS011;55457;52.002;5.464;2022-10-31T09:02:55;8.00;;;3.70;;
55186;SDS011;55457;52.002;5.464;2022-10-31T09:05:22;5.63;;;4.05;;
55186;SDS011;55457;52.002;5.464;2022-10-31T09:07:47;8.00;;;3.65;;
55186;SDS011;55457;52.002;5.464;2022-10-31T09:10:13;8.50;;;3.75;;
55186;SDS011;55457;52.002;5.464;2022-10-31T09:12:38;7.75;;;3.92;;
55186;SDS011;55457;52.002;5.464;2022-10-31T09:15:03;7.38;;;3.47;;
55186;SDS011;55457;52.002;5.464;2022-10-31T09:17:31;11.60;;;4.47;;
55186;SDS011;55457;52.002;5.464;2022-10-31T09:19:56;9.23;;;4.22;;
55186;SDS011;55457;52.002;5.464;2022-10-31T09:22:22;7.20;;;4.38;;
55186;SDS011;55457;52.002;5.464;2022-10-31T09:24:47;9.18;;;3.88;;
55186;SDS011;55457;52.002;5.464;2022-10-31T09:27:12;8.18;;;5.00;;
55186;SDS011;55457;52.002;5.464;2022-10-31T09:29:37;6.72;;;4.15;;
55186;SDS011;55457;52.002;5.464;2022-10-31T09:32:03;6.28;;;4.57;;
55186;SDS011;55457;52.002;5.464;2022-10-31T09:34:28;6.68;;;4.20;;
55186;SDS011;55457;52.002;5.464;2022-10-31T09:36:54;10.68;;;5.15;;
55186;SDS011;55457;52.002;5.464;2022-10-31T09:39:19;6.97;;;4.45;;
55186;SDS011;55457;52.002;5.464;2022-10-31T09:41:52;9.65;;;3.80;;
55186;SDS011;55457;52.002;5.464;2022-10-31T09:46:52;8.10;;;4.03;;
55186;SDS011;55457;52.002;5.464;2022-10-31T09:49:32;6.97;;;3.42;;
55186;SDS011;55457;52.002;5.464;2022-10-31T09:52:28;6.30;;;4.10;;
55186;SDS011;55457;52.002;5.464;2022-10-31T09:57:43;8.57;;;3.78;;
55186;SDS011;55457;52.002;5.464;2022-10-31T10:00:14;5.63;;;3.88;;
55186;SDS011;55457;52.002;5.464;2022-10-31T10:05:11;7.63;;;3.72;;
55186;SDS011;55457;52.002;5.464;2022-10-31T10:10:30;8.02;;;3.67;;
55186;SDS011;55457;52.002;5.464;2022-10-31T10:18:32;10.65;;;4.57;;
55186;SDS011;55457;52.002;5.464;2022-10-31T10:24:09;7.38;;;3.90;;
55186;SDS011;55457;52.002;5.464;2022-10-31T10:26:58;8.07;;;4.47;;
55186;SDS011;55457;52.002;5.464;2022-10-31T10:29:44;9.02;;;4.53;;
55186;SDS011;55457;52.002;5.464;2022-10-31T10:32:23;9.88;;;4.95;;
55186;SDS011;55457;52.002;5.464;2022-10-31T10:34:54;10.38;;;5.50;;
55186;SDS011;55457;52.002;5.464;2022-10-31T10:37:34;12.93;;;4.75;;
55186;SDS011;55457;52.002;5.464;2022-10-31T10:40:11;9.32;;;4.65;;
55186;SDS011;55457;52.002;5.464;2022-10-31T10:42:37;10.27;;;5.40;;
55186;SDS011;55457;52.002;5.464;2022-10-31T10:45:20;10.75;;;4.60;;
55186;SDS011;55457;52.002;5.464;2022-10-31T10:48:24;14.02;;;5.10;;
55186;SDS011;55457;52.002;5.464;2022-10-31T10:50:56;9.18;;;4.60;;
55186;SDS011;55457;52.002;5.464;2022-10-31T10:53:39;8.05;;;5.53;;
55186;SDS011;55457;52.002;5.464;2022-10-31T10:56:30;8.98;;;4.25;;
55186;SDS011;55457;52.002;5.464;2022-10-31T10:58:58;6.43;;;3.92;;
55186;SDS011;55457;52.002;5.464;2022-10-31T11:01:24;7.72;;;4.90;;
55186;SDS011;55457;52.002;5.464;2022-10-31T11:03:50;8.77;;;5.28;;
55186;SDS011;55457;52.002;5.464;2022-10-31T11:06:16;7.90;;;5.07;;
55186;SDS011;55457;52.002;5.464;2022-10-31T11:08:46;9.63;;;4.65;;
55186;SDS011;55457;52.002;5.464;2022-10-31T11:13:52;6.50;;;4.45;;
55186;SDS011;55457;52.002;5.464;2022-10-31T11:18:51;8.52;;;4.70;;
55186;SDS011;55457;52.002;5.464;2022-10-31T11:21:25;7.85;;;4.57;;
55186;SDS011;55457;52.002;5.464;2022-10-31T11:24:03;8.32;;;5.32;;
55186;SDS011;55457;52.002;5.464;2022-10-31T11:26:34;11.57;;;4.78;;
55186;SDS011;55457;52.002;5.464;2022-10-31T11:29:02;6.10;;;4.70;;
55186;SDS011;55457;52.002;5.464;2022-10-31T11:31:30;8.98;;;5.45;;
55186;SDS011;55457;52.002;5.464;2022-10-31T11:33:58;7.85;;;4.50;;
55186;SDS011;55457;52.002;5.464;2022-10-31T11:36:31;8.27;;;5.05;;
55186;SDS011;55457;52.002;5.464;2022-10-31T11:38:59;6.40;;;4.47;;
55186;SDS011;55457;52.002;5.464;2022-10-31T11:41:28;8.27;;;4.82;;
55186;SDS011;55457;52.002;5.464;2022-10-31T11:44:00;7.50;;;5.57;;
55186;SDS011;55457;52.002;5.464;2022-10-31T11:46:38;11.57;;;4.97;;
55186;SDS011;55457;52.002;5.464;2022-10-31T11:49:11;10.07;;;5.30;;
55186;SDS011;55457;52.002;5.464;2022-10-31T11:51:40;8.77;;;5.35;;
55186;SDS011;55457;52.002;5.464;2022-10-31T11:54:06;10.48;;;5.53;;
55186;SDS011;55457;52.002;5.464;2022-10-31T11:56:48;6.93;;;4.75;;
55186;SDS011;55457;52.002;5.464;2022-10-31T11:59:15;6.88;;;5.30;;
55186;SDS011;55457;52.002;5.464;2022-10-31T12:01:46;7.38;;;5.13;;
55186;SDS011;55457;52.002;5.464;2022-10-31T12:04:13;6.65;;;5.05;;
55186;SDS011;55457;52.002;5.464;2022-10-31T12:06:39;8.43;;;6.47;;
55186;SDS011;55457;52.002;5.464;2022-10-31T12:09:23;7.57;;;4.95;;
55186;SDS011;55457;52.002;5.464;2022-10-31T12:17:23;6.03;;;5.03;;
55186;SDS011;55457;52.002;5.464;2022-10-31T12:22:48;8.43;;;5.93;;
55186;SDS011;55457;52.002;5.464;2022-10-31T12:31:00;7.15;;;5.57;;
55186;SDS011;55457;52.002;5.464;2022-10-31T12:44:04;8.05;;;5.15;;
55186;SDS011;55457;52.002;5.464;2022-10-31T12:52:18;9.05;;;6.63;;
55186;SDS011;55457;52.002;5.464;2022-10-31T12:55:02;9.95;;;6.20;;
55186;SDS011;55457;52.002;5.464;2022-10-31T12:57:49;6.85;;;5.22;;
55186;SDS011;55457;52.002;5.464;2022-10-31T13:00:18;8.88;;;5.68;;
55186;SDS011;55457;52.002;5.464;2022-10-31T13:02:49;9.30;;;6.32;;
55186;SDS011;55457;52.002;5.464;2022-10-31T13:05:22;9.57;;;5.97;;
55186;SDS011;55457;52.002;5.464;2022-10-31T13:07:57;8.70;;;5.63;;
55186;SDS011;55457;52.002;5.464;2022-10-31T13:10:30;9.18;;;5.82;;
55186;SDS011;55457;52.002;5.464;2022-10-31T13:13:34;8.00;;;6.25;;
55186;SDS011;55457;52.002;5.464;2022-10-31T13:16:19;7.20;;;5.78;;
55186;SDS011;55457;52.002;5.464;2022-10-31T13:18:51;8.07;;;5.68;;
55186;SDS011;55457;52.002;5.464;2022-10-31T13:21:24;7.75;;;5.75;;
55186;SDS011;55457;52.002;5.464;2022-10-31T13:23:53;9.82;;;6.05;;
55186;SDS011;55457;52.002;5.464;2022-10-31T13:26:36;8.63;;;5.82;;
55186;SDS011;55457;52.002;5.464;2022-10-31T13:29:17;7.82;;;5.50;;
55186;SDS011;55457;52.002;5.464;2022-10-31T13:37:01;8.43;;;6.50;;
55186;SDS011;55457;52.002;5.464;2022-10-31T13:45:16;11.68;;;7.50;;
55186;SDS011;55457;52.002;5.464;2022-10-31T13:47:54;10.43;;;6.93;;
55186;SDS011;55457;52.002;5.464;2022-10-31T13:52:50;11.20;;;7.25;;
55186;SDS011;55457;52.002;5.464;2022-10-31T13:58:03;13.38;;;6.55;;
55186;SDS011;55457;52.002;5.464;2022-10-31T14:00:30;11.10;;;7.90;;
55186;SDS011;55457;52.002;5.464;2022-10-31T14:02:59;11.68;;;6.95;;
55186;SDS011;55457;52.002;5.464;2022-10-31T14:05:34;10.75;;;7.05;;
55186;SDS011;55457;52.002;5.464;2022-10-31T14:08:03;11.18;;;7.18;;
55186;SDS011;55457;52.002;5.464;2022-10-31T14:10:38;8.57;;;7.07;;
55186;SDS011;55457;52.002;5.464;2022-10-31T14:13:23;11.37;;;7.80;;
55186;SDS011;55457;52.002;5.464;2022-10-31T14:16:04;12.00;;;7.50;;
55186;SDS011;55457;52.002;5.464;2022-10-31T14:23:49;14.95;;;8.13;;
55186;SDS011;55457;52.002;5.464;2022-10-31T14:28:43;12.20;;;8.00;;
55186;SDS011;55457;52.002;5.464;2022-10-31T14:51:02;13.02;;;8.13;;
55186;SDS011;55457;52.002;5.464;2022-10-31T14:53:36;10.57;;;8.65;;
55186;SDS011;55457;52.002;5.464;2022-10-31T14:56:09;10.05;;;7.65;;
55186;SDS011;55457;52.002;5.464;2022-10-31T14:58:40;9.93;;;7.30;;
55186;SDS011;55457;52.002;5.464;2022-10-31T15:01:15;12.50;;;7.35;;
55186;SDS011;55457;52.002;5.464;2022-10-31T15:03:43;11.15;;;8.43;;
55186;SDS011;55457;52.002;5.464;2022-10-31T15:06:12;12.38;;;7.97;;
55186;SDS011;55457;52.002;5.464;2022-10-31T15:08:39;12.15;;;7.70;;
55186;SDS011;55457;52.002;5.464;2022-10-31T15:11:10;8.68;;;7.22;;
55186;SDS011;55457;52.002;5.464;2022-10-31T15:16:16;11.00;;;7.65;;
55186;SDS011;55457;52.002;5.464;2022-10-31T15:18:51;10.40;;;7.50;;
55186;SDS011;55457;52.002;5.464;2022-10-31T15:21:19;11.63;;;7.72;;
55186;SDS011;55457;52.002;5.464;2022-10-31T15:23:46;8.35;;;7.18;;
55186;SDS011;55457;52.002;5.464;2022-10-31T15:26:19;10.52;;;7.65;;
55186;SDS011;55457;52.002;5.464;2022-10-31T15:29:03;10.45;;;7.43;;
55186;SDS011;55457;52.002;5.464;2022-10-31T15:31:36;9.82;;;7.93;;
55186;SDS011;55457;52.002;5.464;2022-10-31T15:34:03;9.63;;;7.65;;
55186;SDS011;55457;52.002;5.464;2022-10-31T15:36:32;10.30;;;8.05;;
55186;SDS011;55457;52.002;5.464;2022-10-31T15:38:58;14.38;;;8.45;;
55186;SDS011;55457;52.002;5.464;2022-10-31T15:41:26;9.73;;;8.32;;
55186;SDS011;55457;52.002;5.464;2022-10-31T15:43:53;11.98;;;8.45;;
55186;SDS011;55457;52.002;5.464;2022-10-31T15:46:20;10.23;;;7.75;;
55186;SDS011;55457;52.002;5.464;2022-10-31T15:48:46;9.38;;;7.57;;
55186;SDS011;55457;52.002;5.464;2022-10-31T15:51:13;14.55;;;8.07;;
55186;SDS011;55457;52.002;5.464;2022-10-31T15:53:43;10.52;;;7.70;;
55186;SDS011;55457;52.002;5.464;2022-10-31T15:56:25;13.40;;;7.85;;
55186;SDS011;55457;52.002;5.464;2022-10-31T15:58:53;8.65;;;7.32;;
55186;SDS011;55457;52.002;5.464;2022-10-31T16:01:21;10.52;;;7.85;;
55186;SDS011;55457;52.002;5.464;2022-10-31T16:04:05;10.45;;;7.95;;
55186;SDS011;55457;52.002;5.464;2022-10-31T16:06:36;9.98;;;8.15;;
55186;SDS011;55457;52.002;5.464;2022-10-31T16:09:03;10.60;;;7.95;;
55186;SDS011;55457;52.002;5.464;2022-10-31T16:11:42;10.75;;;7.93;;
55186;SDS011;55457;52.002;5.464;2022-10-31T16:16:43;11.15;;;9.23;;
55186;SDS011;55457;52.002;5.464;2022-10-31T16:19:18;9.40;;;7.65;;
55186;SDS011;55457;52.002;5.464;2022-10-31T16:21:47;10.68;;;7.60;;
55186;SDS011;55457;52.002;5.464;2022-10-31T16:24:29;9.82;;;8.43;;
55186;SDS011;55457;52.002;5.464;2022-10-31T16:27:02;10.63;;;8.15;;
55186;SDS011;55457;52.002;5.464;2022-10-31T16:32:24;11.60;;;8.68;;
55186;SDS011;55457;52.002;5.464;2022-10-31T16:35:27;10.60;;;9.02;;
55186;SDS011;55457;52.002;5.464;2022-10-31T16:38:02;11.05;;;8.52;;
55186;SDS011;55457;52.002;5.464;2022-10-31T16:40:28;11.38;;;8.55;;
55186;SDS011;55457;52.002;5.464;2022-10-31T16:42:56;12.18;;;8.45;;
55186;SDS011;55457;52.002;5.464;2022-10-31T16:45:24;11.15;;;8.60;;
55186;SDS011;55457;52.002;5.464;2022-10-31T16:47:51;12.88;;;8.88;;
55186;SDS011;55457;52.002;5.464;2022-10-31T16:50:20;10.57;;;7.68;;
55186;SDS011;55457;52.002;5.464;2022-10-31T16:52:47;11.97;;;8.13;;
55186;SDS011;55457;52.002;5.464;2022-10-31T16:55:14;13.27;;;8.57;;
55186;SDS011;55457;52.002;5.464;2022-10-31T16:57:41;11.20;;;8.75;;
55186;SDS011;55457;52.002;5.464;2022-10-31T17:00:13;10.88;;;7.95;;
55186;SDS011;55457;52.002;5.464;2022-10-31T17:02:39;10.55;;;8.10;;
55186;SDS011;55457;52.002;5.464;2022-10-31T17:05:08;14.45;;;9.00;;
55186;SDS011;55457;52.002;5.464;2022-10-31T17:07:36;10.98;;;8.27;;
55186;SDS011;55457;52.002;5.464;2022-10-31T17:10:01;13.43;;;9.15;;
55186;SDS011;55457;52.002;5.464;2022-10-31T17:12:27;12.82;;;9.38;;
55186;SDS011;55457;52.002;5.464;2022-10-31T17:14:52;13.82;;;9.15;;